Time;durP1;ratioP1;P1;durP2;ratioP2;P2;SDS_P1;SDS_P2;PMS_P1;PMS_P2;Temp;Humidity;BMP_temperature;BMP_pressure;BME280_temperature;BME280_humidity;BME280_pressure;Samples;Min_cycle;Max_cycle;Signal;HPM_P1;HPM_P2
2021/11/27 00:00:37;;;;;;;42.42;14.70;;;;;;;6.87;100.00;95932.44;5084998;28;20513;-64
2021/11/27 00:03:04;;;;;;;29.40;12.43;;;;;;;6.18;100.00;95834.81;5085712;28;20154;-64
2021/11/27 00:05:34;;;;;;;58.22;24.85;;;;;;;6.68;100.00;95924.31;5083319;28;20109;-64
2021/11/27 00:08:03;;;;;;;36.70;14.30;;;;;;;6.72;100.00;95930.69;5085092;28;20062;-64
2021/11/27 00:10:31;;;;;;;29.05;11.45;;;;;;;6.69;100.00;95920.38;5085226;28;20079;-64
2021/11/27 00:13:00;;;;;;;22.88;6.80;;;;;;;6.53;100.00;95895.03;5085065;28;20063;-63
2021/11/27 00:15:28;;;;;;;16.70;7.05;;;;;;;6.64;100.00;95899.50;5083560;28;20065;-63
2021/11/27 00:17:57;;;;;;;27.98;7.68;;;;;;;6.64;100.00;95907.75;5084755;28;20052;-64
2021/11/27 00:20:30;;;;;;;20.67;7.10;;;;;;;6.68;100.00;95910.56;5085087;28;20441;-63
2021/11/27 00:22:57;;;;;;;20.13;6.88;;;;;;;6.76;100.00;95904.78;5085010;28;20156;-64
2021/11/27 00:25:24;;;;;;;20.05;7.07;;;;;;;6.73;100.00;95924.81;5084663;28;20113;-64
2021/11/27 00:27:51;;;;;;;30.02;8.35;;;;;;;6.72;100.00;95931.44;5083170;28;20079;-64
2021/11/27 00:30:23;;;;;;;24.20;9.43;;;;;;;6.15;100.00;95841.06;5084690;28;20085;-64
2021/11/27 00:32:50;;;;;;;24.42;10.32;;;;;;;6.57;100.00;95896.66;5084517;28;20059;-64
2021/11/27 00:35:19;;;;;;;30.23;11.63;;;;;;;6.80;100.00;95927.63;5084416;28;20064;-64
2021/11/27 00:37:51;;;;;;;34.75;14.02;;;;;;;6.88;100.00;95923.81;5084659;28;20139;-63
2021/11/27 00:40:18;;;;;;;32.38;11.60;;;;;;;6.96;100.00;95914.47;5084729;28;20404;-64
2021/11/27 00:42:45;;;;;;;27.88;10.77;;;;;;;6.96;100.00;95919.97;5073729;28;20075;-64
2021/11/27 00:45:15;;;;;;;32.78;11.15;;;;;;;7.04;100.00;95931.88;5062807;28;20056;-64
2021/11/27 00:47:44;;;;;;;31.60;11.23;;;;;;;7.05;100.00;95901.19;5062997;28;20048;-63
2021/11/27 00:50:13;;;;;;;27.63;10.50;;;;;;;6.97;100.00;95910.53;5064403;28;20131;-64
2021/11/27 00:52:40;;;;;;;33.15;11.15;;;;;;;7.01;100.00;95919.66;5062770;28;20131;-64
2021/11/27 00:55:08;;;;;;;29.40;9.57;;;;;;;6.88;100.00;95895.47;5064412;28;20526;-63
2021/11/27 00:57:35;;;;;;;25.92;9.60;;;;;;;6.56;100.00;95822.78;5064128;28;20383;-63
2021/11/27 01:00:07;;;;;;;27.30;10.18;;;;;;;6.97;100.00;95880.25;5063097;28;20056;-63
2021/11/27 01:02:34;;;;;;;41.75;16.17;;;;;;;6.76;100.00;95869.03;5064019;28;20106;-64
2021/11/27 01:05:01;;;;;;;22.85;8.10;;;;;;;6.71;100.00;95872.09;5064175;28;20084;-64
2021/11/27 01:07:28;;;;;;;17.00;6.88;;;;;;;6.91;100.00;95887.28;5063584;28;20045;-63
2021/11/27 01:09:55;;;;;;;21.27;8.65;;;;;;;6.96;100.00;95892.44;5066910;28;20044;-63
2021/11/27 01:12:22;;;;;;;23.98;8.20;;;;;;;6.61;100.00;95864.47;5066444;28;20538;-63
2021/11/27 01:14:49;;;;;;;20.48;9.13;;;;;;;6.88;100.00;95912.00;5068205;28;20057;-63
2021/11/27 01:17:16;;;;;;;27.30;10.88;;;;;;;6.86;100.00;95915.13;5066858;28;20044;-63
2021/11/27 01:19:44;;;;;;;24.42;9.98;;;;;;;6.76;100.00;95893.78;5068053;28;20510;-63
2021/11/27 01:22:17;;;;;;;22.02;8.85;;;;;;;6.90;100.00;95921.47;5067757;28;20049;-63
2021/11/27 01:24:45;;;;;;;20.38;8.93;;;;;;;6.91;100.00;95925.00;5067789;28;20052;-64
2021/11/27 01:27:12;;;;;;;18.10;7.13;;;;;;;6.89;100.00;95925.38;5066080;28;20511;-63
2021/11/27 01:29:41;;;;;;;29.95;12.75;;;;;;;6.61;100.00;95870.00;5066698;28;20061;-63
2021/11/27 01:32:11;;;;;;;19.88;10.00;;;;;;;6.94;100.00;95922.31;5067338;28;20492;-64
2021/11/27 01:34:41;;;;;;;20.00;8.07;;;;;;;7.00;100.00;95915.28;5067755;28;20056;-63
2021/11/27 01:37:10;;;;;;;18.80;7.18;;;;;;;7.08;100.00;95911.47;5067731;28;20048;-63
2021/11/27 01:39:37;;;;;;;19.00;7.60;;;;;;;7.01;100.00;95925.16;5067799;28;20475;-64
2021/11/27 01:42:05;;;;;;;35.10;13.23;;;;;;;6.85;100.00;95924.56;5071599;28;20579;-63
2021/11/27 01:44:32;;;;;;;38.60;13.10;;;;;;;6.90;100.00;95938.00;5087455;28;20051;-63
2021/11/27 01:46:59;;;;;;;32.97;12.10;;;;;;;6.97;100.00;95937.28;5087423;28;20518;-63
2021/11/27 01:49:27;;;;;;;27.00;10.50;;;;;;;7.01;100.00;95944.44;5087792;28;20052;-63
2021/11/27 01:51:54;;;;;;;39.17;14.00;;;;;;;6.93;100.00;95936.44;5085917;28;20551;-63
2021/11/27 01:54:22;;;;;;;24.88;10.80;;;;;;;6.94;100.00;95932.53;5087899;28;20052;-63
2021/11/27 01:56:55;;;;;;;21.27;8.93;;;;;;;6.82;100.00;95928.06;5087428;28;20079;-63
2021/11/27 01:59:24;;;;;;;17.48;8.20;;;;;;;6.84;100.00;95944.19;5086629;28;20056;-63
2021/11/27 02:01:52;;;;;;;15.60;6.25;;;;;;;6.13;100.00;95865.41;5087618;28;20052;-63
2021/11/27 02:04:19;;;;;;;15.82;6.35;;;;;;;6.48;100.00;95931.88;5087367;28;20151;-63
2021/11/27 02:06:46;;;;;;;12.93;5.13;;;;;;;6.42;100.00;95916.88;5087541;28;20048;-63
2021/11/27 02:09:22;;;;;;;22.52;8.18;;;;;;;6.49;100.00;95910.69;5087190;28;20067;-63
2021/11/27 02:11:51;;;;;;;22.33;9.82;;;;;;;5.66;100.00;95799.06;5087344;28;20044;-64
2021/11/27 02:14:18;;;;;;;20.65;7.50;;;;;;;6.42;100.00;95919.63;5086967;28;20059;-63
2021/11/27 02:16:46;;;;;;;15.70;6.75;;;;;;;6.00;100.00;95869.50;5085912;28;20105;-63
2021/11/27 02:19:14;;;;;;;14.73;6.22;;;;;;;6.40;100.00;95965.97;5086953;28;20048;-63
2021/11/27 02:21:44;;;;;;;10.75;4.60;;;;;;;6.24;100.00;95926.84;5084703;28;20048;-62
2021/11/27 02:24:13;;;;;;;13.10;5.03;;;;;;;6.52;100.00;95976.75;5086607;28;20449;-63
2021/11/27 02:26:40;;;;;;;12.73;5.53;;;;;;;6.34;100.00;95939.16;5086789;28;20505;-63
2021/11/27 02:29:11;;;;;;;14.95;5.55;;;;;;;6.25;100.00;95914.66;5086504;28;20052;-63
2021/11/27 02:31:39;;;;;;;19.50;8.20;;;;;;;5.92;100.00;95837.59;5085326;28;20446;-63
2021/11/27 02:34:06;;;;;;;15.57;5.78;;;;;;;6.54;100.00;95944.19;5086788;28;20485;-63
2021/11/27 02:36:36;;;;;;;19.83;7.70;;;;;;;6.67;100.00;95958.50;5086952;28;20401;-63
2021/11/27 02:39:06;;;;;;;26.67;12.20;;;;;;;6.60;100.00;95930.88;5086325;28;20135;-63
2021/11/27 02:41:33;;;;;;;15.68;6.00;;;;;;;6.74;100.00;95956.63;5086990;28;20113;-63
2021/11/27 02:44:00;;;;;;;15.05;5.47;;;;;;;6.41;100.00;95909.00;5045001;28;20504;-63
2021/11/27 02:46:27;;;;;;;13.90;6.20;;;;;;;6.40;100.00;95891.72;5044792;28;20057;-63
2021/11/27 02:48:54;;;;;;;25.63;8.27;;;;;;;6.07;100.00;95817.38;5046214;28;20077;-63
2021/11/27 02:51:21;;;;;;;22.08;7.78;;;;;;;6.74;100.00;95934.63;5046443;28;20056;-63
2021/11/27 02:53:48;;;;;;;13.77;6.10;;;;;;;6.62;100.00;95942.31;5044620;28;20523;-63
2021/11/27 02:56:15;;;;;;;17.67;6.28;;;;;;;6.34;100.00;95897.91;5046601;28;20122;-63
2021/11/27 02:58:42;;;;;;;11.70;4.43;;;;;;;5.66;100.00;95771.59;5046102;28;20053;-62
2021/11/27 03:01:09;;;;;;;8.88;4.68;;;;;;;6.50;100.00;95935.06;5044496;28;20057;-63
2021/11/27 03:03:39;;;;;;;11.68;4.40;;;;;;;5.32;100.00;95780.88;5046208;28;20061;-63
2021/11/27 03:06:07;;;;;;;13.15;5.00;;;;;;;6.36;100.00;95909.31;5045915;28;20053;-63
2021/11/27 03:08:35;;;;;;;11.80;4.57;;;;;;;6.56;100.00;95922.56;5046079;28;20084;-63
2021/11/27 03:11:04;;;;;;;19.40;7.93;;;;;;;6.64;100.00;95929.75;5046035;28;20142;-63
2021/11/27 03:13:38;;;;;;;46.08;16.65;;;;;;;6.70;100.00;95938.50;5046377;28;20131;-63
2021/11/27 03:16:05;;;;;;;39.50;14.32;;;;;;;6.73;100.00;95944.06;5045634;28;20084;-63
2021/11/27 03:18:32;;;;;;;19.00;7.65;;;;;;;6.54;100.00;95908.41;5045701;28;20091;-64
2021/11/27 03:20:59;;;;;;;18.75;6.88;;;;;;;6.75;100.00;95949.19;5045708;28;20052;-63
2021/11/27 03:23:29;;;;;;;20.67;7.45;;;;;;;6.75;100.00;95952.72;5045544;28;20535;-64
2021/11/27 03:25:56;;;;;;;16.60;7.05;;;;;;;6.70;100.00;95927.50;5045311;28;20049;-65
2021/11/27 03:28:24;;;;;;;14.52;6.72;;;;;;;6.23;100.00;95847.47;5045893;28;20083;-63
2021/11/27 03:30:52;;;;;;;17.38;6.63;;;;;;;6.85;100.00;95946.56;5043949;28;20063;-64
2021/11/27 03:33:18;;;;;;;22.08;8.05;;;;;;;6.92;100.00;95946.69;5045161;28;20052;-63
2021/11/27 03:35:45;;;;;;;17.83;6.95;;;;;;;6.94;100.00;95947.06;5043933;28;20083;-63
2021/11/27 03:38:13;;;;;;;12.15;6.00;;;;;;;6.92;100.00;95935.66;5045843;28;20057;-63
2021/11/27 03:40:40;;;;;;;14.23;6.13;;;;;;;6.94;100.00;95933.31;5045272;28;20060;-63
2021/11/27 03:43:07;;;;;;;17.65;6.47;;;;;;;6.93;100.00;95931.75;5070739;28;20075;-62
2021/11/27 03:45:35;;;;;;;23.48;10.10;;;;;;;7.00;100.00;95942.81;5083883;28;20529;-64
2021/11/27 03:48:14;;;;;;;16.02;7.63;;;;;;;6.73;100.00;95926.75;5084144;28;20059;-64
2021/11/27 03:50:44;;;;;;;24.48;5.82;;;;;;;6.59;100.00;95921.81;5085102;28;20060;-62
2021/11/27 03:53:18;;;;;;;11.57;4.95;;;;;;;6.60;100.00;95928.94;5085441;28;20052;-63
2021/11/27 03:55:45;;;;;;;16.48;6.28;;;;;;;6.42;100.00;95943.59;5085115;28;20530;-63
2021/11/27 03:58:13;;;;;;;7.72;3.47;;;;;;;5.95;100.00;95891.81;5085408;28;20485;-64
2021/11/27 04:00:41;;;;;;;16.58;6.57;;;;;;;5.71;100.00;95872.94;5083662;28;20453;-63
2021/11/27 04:03:11;;;;;;;14.93;4.95;;;;;;;6.04;100.00;95939.88;5085015;28;20118;-63
2021/11/27 04:05:45;;;;;;;9.88;3.88;;;;;;;5.90;100.00;95949.81;5084770;28;20416;-64
2021/11/27 04:08:14;;;;;;;9.25;3.58;;;;;;;5.87;100.00;95956.84;5085166;28;20059;-63
2021/11/27 04:10:40;;;;;;;14.75;4.50;;;;;;;5.35;100.00;95889.97;5084788;28;20479;-62
2021/11/27 04:13:08;;;;;;;14.00;6.03;;;;;;;5.62;100.00;95938.31;5085559;28;20130;-63
2021/11/27 04:15:35;;;;;;;19.80;8.50;;;;;;;5.40;100.00;95906.13;5084992;28;20095;-64
2021/11/27 04:18:02;;;;;;;20.48;5.30;;;;;;;5.47;100.00;95914.50;5083467;28;20075;-63
2021/11/27 04:20:30;;;;;;;16.35;5.22;;;;;;;5.74;100.00;95957.34;5084647;28;20060;-63
2021/11/27 04:22:57;;;;;;;18.30;7.00;;;;;;;5.12;100.00;95869.94;5083495;28;20054;-65
2021/11/27 04:25:24;;;;;;;44.45;16.70;;;;;;;5.88;100.00;95979.63;5084781;28;20158;-62
2021/11/27 04:27:51;;;;;;;16.80;6.60;;;;;;;5.34;100.00;95888.38;5082993;28;20406;-63
2021/11/27 04:30:21;;;;;;;22.05;7.18;;;;;;;6.10;100.00;95995.34;5084845;28;20063;-63
2021/11/27 04:32:49;;;;;;;24.85;7.55;;;;;;;5.78;100.00;95925.25;5084718;28;20052;-64
2021/11/27 04:35:16;;;;;;;24.40;8.18;;;;;;;6.08;100.00;95972.91;5084909;28;20077;-63
2021/11/27 04:37:44;;;;;;;36.60;8.02;;;;;;;5.99;100.00;95969.63;5084829;28;20472;-63
2021/11/27 04:40:12;;;;;;;28.98;9.88;;;;;;;5.92;100.00;95947.50;5084489;28;20585;-63
2021/11/27 04:42:39;;;;;;;25.73;9.25;;;;;;;6.25;100.00;95993.59;5076121;28;20044;-63
2021/11/27 04:45:07;;;;;;;33.80;11.52;;;;;;;5.91;100.00;95945.94;5063817;28;20044;-62
2021/11/27 04:47:35;;;;;;;34.60;12.18;;;;;;;6.12;100.00;95990.25;5064396;28;20048;-63
2021/11/27 04:50:05;;;;;;;43.40;13.15;;;;;;;5.96;100.00;95948.34;5064376;28;20102;-63
2021/11/27 04:52:32;;;;;;;41.80;13.75;;;;;;;6.09;100.00;95993.72;5062942;28;20072;-62
2021/11/27 04:54:59;;;;;;;47.97;17.33;;;;;;;6.11;100.00;95961.19;5064555;28;20086;-63
2021/11/27 04:57:26;;;;;;;39.58;15.25;;;;;;;5.92;100.00;95947.50;5064277;28;20044;-63
2021/11/27 04:59:52;;;;;;;40.33;13.18;;;;;;;6.16;100.00;95993.88;5062901;28;20055;-63
2021/11/27 05:02:19;;;;;;;42.83;9.27;;;;;;;6.04;100.00;95985.78;5064148;28;20048;-63
2021/11/27 05:04:46;;;;;;;24.20;10.07;;;;;;;6.06;100.00;95991.72;5064329;28;20059;-63
2021/11/27 05:07:13;;;;;;;23.20;10.10;;;;;;;6.11;100.00;96005.16;5064036;28;20507;-63
2021/11/27 05:09:40;;;;;;;27.15;11.38;;;;;;;6.05;100.00;96001.13;5064252;28;20492;-63
2021/11/27 05:12:07;;;;;;;29.00;11.20;;;;;;;6.22;100.00;96011.63;5062224;28;20052;-64
2021/11/27 05:14:34;;;;;;;37.13;14.48;;;;;;;6.27;100.00;96005.84;5064415;28;20487;-63
2021/11/27 05:17:01;;;;;;;34.50;14.15;;;;;;;5.95;100.00;95947.56;5064453;28;20426;-63
2021/11/27 05:19:27;;;;;;;35.08;13.70;;;;;;;6.29;100.00;96006.25;5064341;28;20048;-63
2021/11/27 05:21:54;;;;;;;29.08;12.15;;;;;;;4.72;100.00;95762.56;5063968;28;20044;-63
2021/11/27 05:24:21;;;;;;;22.90;8.55;;;;;;;6.09;100.00;96012.97;5064150;28;20048;-63
2021/11/27 05:26:48;;;;;;;24.42;7.22;;;;;;;6.22;100.00;96028.13;5062240;28;20060;-65
2021/11/27 05:29:14;;;;;;;54.45;13.18;;;;;;;6.16;100.00;96030.38;5062842;28;20059;-63
2021/11/27 05:31:42;;;;;;;43.25;7.88;;;;;;;5.96;100.00;96044.53;5061347;28;20082;-64
2021/11/27 05:36:39;;;;;;;44.50;13.85;;;;;;;6.18;100.00;96049.25;5064054;28;20056;-63
2021/11/27 05:39:06;;;;;;;38.72;14.02;;;;;;;6.25;100.00;96065.88;5064392;28;20063;-63
2021/11/27 05:41:33;;;;;;;28.60;11.02;;;;;;;5.58;100.00;95964.94;5062183;28;20052;-62
2021/11/27 05:44:00;;;;;;;65.40;24.58;;;;;;;6.19;100.00;96056.34;5083731;28;20055;-63
2021/11/27 05:46:27;;;;;;;30.73;11.63;;;;;;;6.15;100.00;96066.47;5089108;28;20074;-64
2021/11/27 05:48:55;;;;;;;31.75;12.32;;;;;;;6.07;100.00;96064.75;5084449;28;20131;-63
2021/11/27 05:51:22;;;;;;;31.52;10.75;;;;;;;6.11;100.00;96082.13;5083847;28;20441;-63
2021/11/27 05:53:48;;;;;;;33.95;11.68;;;;;;;6.11;100.00;96076.63;5082476;28;20055;-64
2021/11/27 05:56:15;;;;;;;31.95;14.23;;;;;;;5.86;100.00;96080.88;5086880;28;20047;-65
2021/11/27 05:58:42;;;;;;;35.42;15.07;;;;;;;5.98;100.00;96088.94;5086611;28;20056;-63
2021/11/27 06:01:10;;;;;;;31.80;11.00;;;;;;;5.85;100.00;96063.56;5087098;28;20067;-64
2021/11/27 06:03:37;;;;;;;55.03;20.52;;;;;;;5.94;100.00;96068.84;5087412;28;20055;-64
2021/11/27 06:06:04;;;;;;;33.30;14.13;;;;;;;5.62;100.00;96042.69;5087628;28;20055;-63
2021/11/27 06:08:31;;;;;;;49.72;19.50;;;;;;;5.99;100.00;96096.81;5085584;28;20135;-63
2021/11/27 06:10:58;;;;;;;58.80;23.83;;;;;;;6.00;100.00;96108.63;5087705;28;20051;-63
2021/11/27 06:13:25;;;;;;;31.40;15.45;;;;;;;5.90;100.00;96125.69;5086580;28;20056;-63
2021/11/27 06:15:52;;;;;;;26.02;13.10;;;;;;;5.93;100.00;96097.47;5087174;28;20060;-63
2021/11/27 06:18:19;;;;;;;27.60;11.63;;;;;;;5.77;100.00;96096.75;5086927;28;20052;-63
2021/11/27 06:20:46;;;;;;;21.27;9.88;;;;;;;5.67;100.00;96091.84;5085704;28;20081;-65
2021/11/27 06:23:14;;;;;;;23.60;9.43;;;;;;;5.06;100.00;95986.66;5085312;28;20058;-63
2021/11/27 06:25:40;;;;;;;27.45;10.32;;;;;;;6.01;100.00;96132.19;5086823;28;20071;-62
2021/11/27 06:28:08;;;;;;;27.02;11.23;;;;;;;4.56;100.00;95925.25;5086792;28;20052;-64
2021/11/27 06:30:36;;;;;;;28.85;13.15;;;;;;;5.84;100.00;96138.13;5086885;28;20142;-63
2021/11/27 06:33:03;;;;;;;46.00;17.45;;;;;;;5.81;100.00;96127.84;5086135;28;20048;-63
2021/11/27 06:35:30;;;;;;;27.75;12.07;;;;;;;5.07;100.00;96021.97;5084984;28;20051;-63
2021/11/27 06:37:57;;;;;;;20.58;8.93;;;;;;;5.90;100.00;96137.50;5086591;28;20071;-64
2021/11/27 06:40:23;;;;;;;25.60;10.55;;;;;;;6.03;100.00;96135.38;5086449;28;20514;-63
2021/11/27 06:42:50;;;;;;;31.52;10.43;;;;;;;6.01;100.00;96133.00;5077125;28;20048;-67
2021/11/27 06:45:18;;;;;;;32.08;13.02;;;;;;;5.58;100.00;96052.81;5066571;28;20052;-63
2021/11/27 06:47:45;;;;;;;43.35;17.33;;;;;;;6.11;100.00;96129.66;5065942;28;20442;-64
2021/11/27 06:50:13;;;;;;;58.22;21.02;;;;;;;6.17;100.00;96130.16;5065977;28;20048;-63
2021/11/27 06:52:41;;;;;;;42.10;17.88;;;;;;;6.30;100.00;96128.84;5065987;28;20059;-63
2021/11/27 06:55:08;;;;;;;43.60;13.95;;;;;;;6.34;100.00;96124.19;5064605;28;20059;-63
2021/11/27 06:57:35;;;;;;;33.22;15.00;;;;;;;6.27;100.00;96121.31;5065828;28;20135;-63
2021/11/27 07:00:06;;;;;;;49.95;20.05;;;;;;;6.23;100.00;96117.69;5066164;28;20435;-63
2021/11/27 07:02:33;;;;;;;84.85;29.50;;;;;;;6.10;100.00;96130.03;5065675;28;20048;-62
2021/11/27 07:05:00;;;;;;;71.65;25.98;;;;;;;6.64;100.00;96127.09;5065813;28;20499;-63
2021/11/27 07:07:27;;;;;;;39.85;16.75;;;;;;;6.65;100.00;96110.22;5065348;28;20058;-63
2021/11/27 07:09:54;;;;;;;23.35;8.73;;;;;;;6.82;100.00;96145.47;5065543;28;20044;-63
2021/11/27 07:12:21;;;;;;;20.92;6.57;;;;;;;6.91;100.00;96148.75;5065735;28;20586;-62
2021/11/27 07:14:48;;;;;;;23.65;7.63;;;;;;;6.93;100.00;96159.41;5064176;28;20060;-63
2021/11/27 07:17:15;;;;;;;20.98;7.32;;;;;;;6.99;100.00;96153.22;5058036;28;20067;-60
2021/11/27 07:19:42;;;;;;;38.00;10.00;;;;;;;6.68;100.00;96103.16;5053216;28;20132;-63
2021/11/27 07:22:10;;;;;;;48.03;13.10;;;;;;;7.25;100.00;96145.00;5051693;28;20127;-65
2021/11/27 07:24:36;;;;;;;49.92;18.15;;;;;;;7.24;100.00;96151.66;5058787;28;20051;-65
2021/11/27 07:27:06;;;;;;;31.83;12.82;;;;;;;7.00;100.00;96130.03;5056447;28;20052;-62
2021/11/27 07:29:36;;;;;;;36.10;12.05;;;;;;;6.98;100.00;96110.34;5052832;28;20192;-62
2021/11/27 07:32:03;;;;;;;47.78;13.73;;;;;;;7.22;100.00;96153.97;5056077;28;20091;-63
2021/11/27 07:34:30;;;;;;;21.45;8.98;;;;;;;6.72;100.00;96102.06;5051626;28;20519;-63
2021/11/27 07:36:57;;;;;;;25.70;8.13;;;;;;;7.12;100.00;96148.31;5055470;28;20413;-64
2021/11/27 07:39:25;;;;;;;28.05;9.20;;;;;;;7.23;100.00;96141.81;5053336;28;20055;-64
2021/11/27 07:41:52;;;;;;;29.02;9.57;;;;;;;6.90;100.00;96086.63;5051243;28;20059;-65
2021/11/27 07:44:18;;;;;;;15.63;6.57;;;;;;;7.31;100.00;96139.94;5048309;28;20245;-64
2021/11/27 07:46:47;;;;;;;27.13;6.95;;;;;;;7.40;100.00;96140.47;5052500;28;20057;-63
2021/11/27 07:49:14;;;;;;;10.20;4.07;;;;;;;7.12;99.17;96096.78;5054192;28;20519;-64
2021/11/27 07:51:41;;;;;;;16.65;4.75;;;;;;;7.37;98.24;96166.81;5052581;28;20045;-63
2021/11/27 07:54:08;;;;;;;18.50;3.95;;;;;;;5.06;97.66;95811.03;5045131;28;20491;-65
2021/11/27 07:56:34;;;;;;;5.35;3.22;;;;;;;6.40;100.00;96136.50;5055748;28;20118;-62
2021/11/27 07:59:01;;;;;;;12.13;4.05;;;;;;;6.66;100.00;96152.25;5054665;28;20470;-66
2021/11/27 08:01:30;;;;;;;9.02;3.42;;;;;;;6.19;100.00;96169.06;5050092;28;20056;-62
2021/11/27 08:03:57;;;;;;;16.42;4.32;;;;;;;6.47;100.00;96150.34;5051864;28;20052;-63
2021/11/27 08:06:24;;;;;;;12.75;4.60;;;;;;;6.71;100.00;96150.00;5055103;28;20056;-64
2021/11/27 08:08:51;;;;;;;16.85;4.60;;;;;;;6.11;100.00;96062.88;5054970;28;20053;-66
2021/11/27 08:11:19;;;;;;;10.82;4.90;;;;;;;7.02;100.00;96166.25;5051662;28;20044;-63
2021/11/27 08:13:47;;;;;;;14.85;6.90;;;;;;;6.63;100.00;96070.44;5059964;28;20056;-60
2021/11/27 08:16:15;;;;;;;14.75;7.00;;;;;;;7.24;100.00;96145.38;5048972;28;20051;-61
2021/11/27 08:18:46;;;;;;;19.58;8.80;;;;;;;7.41;100.00;96151.09;5059208;28;20057;-61
2021/11/27 08:21:13;;;;;;;17.17;6.82;;;;;;;7.47;100.00;96220.47;5060185;28;20499;-62
2021/11/27 08:23:48;;;;;;;14.10;5.97;;;;;;;7.12;100.00;96072.00;5050303;28;20507;-65
2021/11/27 08:26:15;;;;;;;14.63;6.60;;;;;;;7.33;100.00;96094.31;5053350;28;20059;-65
2021/11/27 08:28:42;;;;;;;19.90;9.40;;;;;;;7.01;98.81;96038.03;5057389;28;20052;-67
2021/11/27 08:31:09;;;;;;;23.85;8.13;;;;;;;7.57;99.15;96132.44;5060053;28;20227;-63
2021/11/27 08:33:36;;;;;;;29.90;9.85;;;;;;;7.15;97.56;96046.47;5063482;28;20049;-64
2021/11/27 08:36:04;;;;;;;18.13;7.22;;;;;;;7.82;96.48;96170.59;5061499;28;20053;-65
2021/11/27 08:38:31;;;;;;;27.40;8.95;;;;;;;7.80;97.89;96151.66;5051568;28;20051;-65
2021/11/27 08:40:59;;;;;;;27.75;9.27;;;;;;;8.04;97.12;96142.09;5057761;28;20060;-62
2021/11/27 08:48:47;;;;;;;20.35;8.90;;;;;;;7.47;93.72;96119.34;5079301;27;20474;-62
2021/11/27 08:51:14;;;;;;;24.40;10.35;;;;;;;8.22;93.61;96151.41;5077456;28;20135;-61
2021/11/27 08:53:41;;;;;;;30.75;13.00;;;;;;;8.06;93.89;96150.81;5067234;28;20110;-63
2021/11/27 08:56:08;;;;;;;28.15;11.57;;;;;;;7.99;94.08;96103.84;5071162;28;20044;-62
2021/11/27 08:58:37;;;;;;;30.80;11.60;;;;;;;7.49;93.93;96023.31;5063128;28;20404;-65
2021/11/27 09:01:06;;;;;;;36.00;10.63;;;;;;;6.17;92.00;95816.75;5068234;28;20046;-66
2021/11/27 09:03:34;;;;;;;20.77;9.10;;;;;;;8.15;91.69;96121.78;5072172;28;20041;-65
2021/11/27 09:06:01;;;;;;;22.15;9.10;;;;;;;6.71;92.67;95847.31;5079252;28;20503;-65
2021/11/27 09:08:29;;;;;;;26.05;10.82;;;;;;;8.76;91.89;96116.50;5080243;28;20055;-66
2021/11/27 09:10:56;;;;;;;27.73;11.27;;;;;;;9.07;90.54;96137.28;5080890;28;20059;-65
2021/11/27 09:13:23;;;;;;;26.50;10.88;;;;;;;9.15;89.74;96112.06;5090634;28;20058;-65
2021/11/27 09:15:50;;;;;;;31.35;12.98;;;;;;;8.89;89.60;96070.84;5099174;28;20143;-65
2021/11/27 09:18:17;;;;;;;27.05;10.68;;;;;;;9.46;88.16;96132.81;5100482;28;20047;-65
2021/11/27 09:20:43;;;;;;;28.45;10.57;;;;;;;9.68;86.36;96114.38;5099372;28;20054;-65
2021/11/27 09:23:10;;;;;;;31.80;11.50;;;;;;;9.84;84.50;96115.66;5101628;28;20048;-65
2021/11/27 09:25:37;;;;;;;26.70;11.65;;;;;;;9.74;83.70;96127.44;5099522;28;20048;-65
2021/11/27 09:28:04;;;;;;;25.70;9.65;;;;;;;9.66;83.79;96120.28;5101513;28;20062;-65
2021/11/27 09:30:31;;;;;;;21.42;9.15;;;;;;;9.46;85.45;96115.44;5098832;28;20089;-65
2021/11/27 09:32:58;;;;;;;28.10;11.15;;;;;;;9.46;87.42;96116.25;5101575;28;20048;-65
2021/11/27 09:35:25;;;;;;;31.65;13.85;;;;;;;9.60;86.54;96083.16;5100623;28;20131;-67
2021/11/27 09:37:52;;;;;;;227.95;107.63;;;;;;;10.01;84.66;96092.81;5099640;28;20072;-65
2021/11/27 09:40:20;;;;;;;70.82;44.15;;;;;;;10.29;84.57;96101.22;5100636;28;20048;-64
2021/11/27 09:42:53;;;;;;;;;;;;;;;10.52;80.95;96101.69;5101906;28;20047;-65
2021/11/27 09:45:25;;;;;;;27.52;15.02;;;;;;;10.14;81.63;96105.16;5083815;28;19924;-66
2021/11/27 09:47:55;;;;;;;26.42;12.13;;;;;;;9.89;79.87;96059.19;5078708;28;20090;-67
2021/11/27 09:50:23;;;;;;;28.45;12.77;;;;;;;10.09;81.48;96094.44;5079553;28;20059;-67
2021/11/27 09:52:51;;;;;;;32.42;14.73;;;;;;;9.79;81.45;96069.00;5078016;28;20131;-65
2021/11/27 09:55:18;;;;;;;34.97;16.45;;;;;;;9.92;82.22;96073.03;5079615;28;20151;-66
2021/11/27 09:57:48;;;;;;;38.70;16.88;;;;;;;8.51;82.10;95838.72;5080365;28;20052;-66
2021/11/27 10:00:17;;;;;;;39.67;17.20;;;;;;;9.03;86.12;96097.78;5066197;28;20052;-65
2021/11/27 10:02:45;;;;;;;38.65;15.45;;;;;;;8.09;91.32;96064.56;5066759;28;20053;-63
2021/11/27 10:05:16;;;;;;;38.42;17.35;;;;;;;8.38;93.80;96103.13;5066110;28;20048;-63
2021/11/27 10:07:42;;;;;;;31.33;13.85;;;;;;;8.78;89.86;96081.03;5066748;28;20147;-66
2021/11/27 10:10:11;;;;;;;44.42;19.17;;;;;;;8.68;91.09;96095.53;5066748;28;20244;-65
2021/11/27 10:12:40;;;;;;;35.45;15.77;;;;;;;8.96;88.28;96072.88;5066475;28;20064;-65
2021/11/27 10:15:09;;;;;;;40.10;16.90;;;;;;;9.56;87.53;96071.28;5065032;28;20547;-66
2021/11/27 10:17:36;;;;;;;36.85;17.73;;;;;;;9.67;83.92;96011.31;5065221;28;20132;-66
2021/11/27 10:20:07;;;;;;;40.08;18.65;;;;;;;10.30;81.00;96072.38;5066898;28;20052;-65
2021/11/27 10:22:37;;;;;;;38.03;16.20;;;;;;;10.16;82.67;96072.31;5059566;28;20421;-67
2021/11/27 10:25:28;;;;;;;34.90;14.57;;;;;;;10.68;80.22;96059.78;5051886;28;20065;-67
2021/11/27 10:28:05;;;;;;;23.33;11.57;;;;;;;10.35;78.92;95997.25;5058693;28;20068;-70
2021/11/27 10:31:00;;;;;;;19.38;8.65;;;;;;;10.67;78.55;96019.41;5047754;28;20041;-71
2021/11/27 10:33:28;;;;;;;13.93;7.35;;;;;;;10.86;78.84;96032.09;5051550;28;20558;-66
2021/11/27 10:35:57;;;;;;;16.05;9.18;;;;;;;11.19;77.86;96067.69;5055740;28;20131;-67
2021/11/27 10:38:35;;;;;;;12.18;6.05;;;;;;;10.55;79.68;96017.84;5049259;28;20057;-61
2021/11/27 10:41:02;;;;;;;13.35;6.57;;;;;;;10.90;79.62;96060.56;5052905;28;20057;-68
2021/11/27 10:43:30;;;;;;;11.18;5.03;;;;;;;10.98;79.43;96065.72;5054249;28;20045;-68
2021/11/27 10:46:34;;;;;;;20.52;6.70;;;;;;;10.98;79.25;96067.69;5052107;28;20152;-68
2021/11/27 10:49:06;;;;;;;9.98;4.85;;;;;;;10.48;80.36;96001.22;5062511;28;20090;-67
2021/11/27 10:51:34;;;;;;;9.43;4.35;;;;;;;10.90;79.86;96074.41;5064630;28;20067;-66
2021/11/27 10:54:06;;;;;;;9.00;4.93;;;;;;;10.88;80.37;96071.25;5066516;28;20147;-67
2021/11/27 10:56:40;;;;;;;10.90;5.43;;;;;;;11.31;79.01;96070.03;5064502;28;20589;-63
2021/11/27 10:59:07;;;;;;;8.88;5.38;;;;;;;11.01;80.23;96075.19;5066777;28;20054;-66
2021/11/27 11:01:58;;;;;;;13.20;6.07;;;;;;;10.97;81.02;96077.97;5065292;28;20215;-66
2021/11/27 11:04:25;;;;;;;10.23;5.07;;;;;;;11.00;80.90;96093.03;5065780;28;20140;-67
2021/11/27 11:07:24;;;;;;;15.38;6.72;;;;;;;10.94;81.45;96083.53;5064457;28;20106;-66
2021/11/27 11:10:09;;;;;;;16.88;6.88;;;;;;;10.77;81.92;96078.75;5065388;28;20055;-67
2021/11/27 11:12:41;;;;;;;12.90;6.68;;;;;;;10.78;82.00;96069.28;5065647;28;20057;-67
2021/11/27 11:15:11;;;;;;;15.68;6.78;;;;;;;10.16;82.96;96005.91;5064106;28;20503;-66
2021/11/27 11:17:38;;;;;;;14.10;5.63;;;;;;;10.65;82.30;96032.88;5065595;28;20064;-66
2021/11/27 11:20:27;;;;;;;13.90;6.13;;;;;;;10.70;81.64;96040.78;5064163;28;20522;-65
2021/11/27 11:22:57;;;;;;;14.38;6.35;;;;;;;11.11;81.04;96082.72;5065198;28;20059;-67
2021/11/27 11:25:24;;;;;;;17.45;7.25;;;;;;;10.93;80.67;96084.69;5063979;28;20053;-67
2021/11/27 11:27:55;;;;;;;12.93;6.70;;;;;;;10.90;81.46;96089.06;5065053;28;20053;-68
2021/11/27 11:30:23;;;;;;;14.18;6.32;;;;;;;10.78;81.70;96047.13;5065328;28;20059;-66
2021/11/27 11:32:50;;;;;;;15.10;6.53;;;;;;;10.75;80.07;96003.59;5065131;28;20055;-66
2021/11/27 11:35:17;;;;;;;15.63;7.40;;;;;;;11.14;79.96;96087.47;5063774;28;20063;-66
2021/11/27 11:37:44;;;;;;;17.35;7.35;;;;;;;11.14;79.93;96087.47;5063489;28;20053;-66